createdAt,value
2022-09-05T00:02:04.314Z,-23810.41
2022-09-05T00:05:02.971Z,-23796.31
2022-09-05T00:07:59.086Z,-23787.59
2022-09-05T00:11:39.680Z,-23793.41
2022-09-05T00:14:34.416Z,-23798.25
2022-09-05T00:20:09.578Z,-23798.03
2022-09-05T00:24:30.242Z,-23791.47
2022-09-05T00:25:08.625Z,-23793.63
2022-09-05T00:28:14.580Z,-23800.19
2022-09-05T00:31:55.438Z,-23800.94
2022-09-05T00:34:54.769Z,-23796.31
2022-09-05T00:37:45.753Z,-23805.06
2022-09-05T00:40:40.346Z,-23816.69
2022-09-05T00:43:31.675Z,-23809.41
2022-09-05T00:46:33.015Z,-23817.19
2022-09-05T00:49:25.829Z,-23820.09
2022-09-05T00:52:16.870Z,-23814.50
2022-09-05T00:55:28.776Z,-23801.41
2022-09-05T00:58:40.924Z,-23793.88
2022-09-05T01:01:38.809Z,-23792.44
2022-09-05T01:04:43.960Z,-23790.00
2022-09-05T01:08:04.889Z,-23785.63
2022-09-05T01:11:18.535Z,-23788.06
2022-09-05T01:14:13.018Z,-23796.06
2022-09-05T01:17:24.225Z,-23794.13
2022-09-05T01:20:40.842Z,-23799.97
2022-09-05T01:23:44.575Z,-23790.25
2022-09-05T01:26:42.720Z,-23787.59
2022-09-05T01:29:46.298Z,-23792.94
2022-09-05T01:32:42.603Z,-23790.00
2022-09-05T01:35:52.268Z,-23785.63
2022-09-05T01:40:11.569Z,-23773.97
2022-09-05T01:42:38.888Z,-23772.53
2022-09-05T01:45:50.578Z,-23766.69
2022-09-05T01:48:48.192Z,-23761.84
2022-09-05T01:51:46.598Z,-23762.09
2022-09-05T01:54:48.769Z,-23765.00
2022-09-05T01:57:54.697Z,-23772.53
2022-09-05T02:01:27.026Z,-23775.44
2022-09-05T02:04:30.313Z,-23782.25
2022-09-05T02:07:31.334Z,-23767.69
2022-09-05T02:11:02.183Z,-23765.75
2022-09-05T02:13:57.617Z,-23759.41
2022-09-05T02:16:45.437Z,-23755.31
2022-09-05T02:19:44.026Z,-23754.81
2022-09-05T02:22:42.337Z,-23751.19
2022-09-05T02:26:02.322Z,-23750.94
2022-09-05T02:28:58.974Z,-23751.19
2022-09-05T02:31:48.358Z,-23745.09
2022-09-05T02:34:58.899Z,-23755.78
2022-09-05T02:40:10.960Z,-23755.31
2022-09-05T02:45:04.365Z,-23757.47
2022-09-05T02:45:19.649Z,-23756.50
2022-09-05T02:48:15.904Z,-23750.94
2022-09-05T02:57:23.824Z,-23755.78
2022-09-05T02:57:42.484Z,-23756.03
2022-09-05T02:58:08.470Z,-23759.91
2022-09-05T03:01:23.299Z,-23759.66
2022-09-05T03:04:20.437Z,-23756.50
2022-09-05T03:07:27.975Z,-23747.28
2022-09-05T03:10:54.237Z,-23748.75
2022-09-05T03:14:09.663Z,-23753.13
2022-09-05T03:17:34.866Z,-23746.81
2022-09-05T03:20:46.668Z,-23736.88
2022-09-05T03:23:58.724Z,-23736.63
2022-09-05T03:27:10.224Z,-23735.66
2022-09-05T03:30:20.490Z,-23742.91
2022-09-05T03:33:29.936Z,-23741.97
2022-09-05T03:36:26.027Z,-23742.44
2022-09-05T03:39:27.046Z,-23733.22
2022-09-05T03:42:31.974Z,-23735.66
2022-09-05T03:45:37.740Z,-23726.91
2022-09-05T03:48:42.911Z,-23726.19
2022-09-05T03:57:06.281Z,-23726.66
2022-09-05T03:57:26.942Z,-23735.16
2022-09-05T03:58:56.376Z,-23736.63
2022-09-05T04:04:33.803Z,-23731.28
2022-09-05T04:08:19.556Z,-23720.34
2022-09-05T04:08:44.422Z,-23727.41
2022-09-05T04:11:37.830Z,-23725.69
2022-09-05T04:14:26.980Z,-23735.88
2022-09-05T04:17:31.027Z,-23734.19
2022-09-05T04:20:35.298Z,-23732.00
2022-09-05T04:23:47.176Z,-23730.53
2022-09-05T04:26:49.147Z,-23731.28
2022-09-05T04:30:37.821Z,-23725.22
2022-09-05T04:33:35.937Z,-23720.59
2022-09-05T04:36:36.475Z,-23717.44
2022-09-05T04:39:26.850Z,-23708.72
2022-09-05T04:42:21.547Z,-23712.34
2022-09-05T04:45:13.857Z,-23718.19
2022-09-05T04:48:15.753Z,-23716.72
2022-09-05T04:51:11.609Z,-23712.81
2022-09-05T04:54:22.194Z,-23707.97
2022-09-05T04:57:27.641Z,-23704.59
2022-09-05T05:06:05.089Z,-23707.00
2022-09-05T05:06:18.132Z,-23700.47
2022-09-05T05:06:48.907Z,-23697.78
2022-09-05T05:13:14.891Z,-23706.28
2022-09-05T05:18:12.355Z,-23719.63
2022-09-05T05:18:14.834Z,-23722.53
2022-09-05T05:20:40.368Z,-23722.53
2022-09-05T05:23:11.499Z,-23724.00
2022-09-05T05:26:01.137Z,-23714.78
2022-09-05T05:28:56.888Z,-23715.25
2022-09-05T05:31:53.569Z,-23716.97
2022-09-05T05:34:52.487Z,-23716.47
2022-09-05T05:37:50.277Z,-23712.81
2022-09-05T05:40:40.981Z,-23726.19
2022-09-05T05:43:46.662Z,-23735.66
2022-09-05T05:46:39.670Z,-23731.28
2022-09-05T05:49:32.678Z,-23735.66
2022-09-05T05:52:28.294Z,-23729.81
2022-09-05T05:55:51.633Z,-23724.47
2022-09-05T05:59:24.835Z,-23726.41
2022-09-05T06:03:09.843Z,-23726.91
2022-09-05T06:06:31.799Z,-23733.44
2022-09-05T06:14:48.636Z,-23740.25
2022-09-05T06:15:05.699Z,-23738.56
2022-09-05T06:16:57.840Z,-23740.50
2022-09-05T06:22:04.978Z,-23747.28
2022-09-05T06:23:58.669Z,-23751.41
2022-09-05T06:27:08.279Z,-23753.84
2022-09-05T06:30:09.015Z,-23750.19
2022-09-05T06:33:29.806Z,-23751.19
2022-09-05T06:36:23.506Z,-23757.25
2022-09-05T06:39:18.894Z,-23759.19
2022-09-05T06:42:42.713Z,-23767.94
2022-09-05T06:45:32.014Z,-23771.81
2022-09-05T06:48:44.571Z,-23781.75
2022-09-05T06:51:46.454Z,-23780.28
2022-09-05T06:54:59.928Z,-23788.31
2022-09-05T06:58:09.046Z,-23788.53
2022-09-05T07:00:57.995Z,-23781.28
2022-09-05T07:04:34.558Z,-23785.41
2022-09-05T07:07:48.908Z,-23801.41
2022-09-05T07:10:41.110Z,-23806.03
2022-09-05T07:14:00.437Z,-23823.50
2022-09-05T07:16:56.214Z,-23836.63
2022-09-05T07:19:54.857Z,-23842.69
2022-09-05T07:22:55.452Z,-23841.94
2022-09-05T07:25:49.026Z,-23850.22
2022-09-05T07:28:38.098Z,-23853.13
2022-09-05T07:31:37.644Z,-23860.88
2022-09-05T07:34:29.904Z,-23866.47
2022-09-05T07:37:26.593Z,-23869.88
2022-09-05T07:40:25.735Z,-23863.31
2022-09-05T07:43:18.915Z,-23869.38
2022-09-05T07:46:23.324Z,-23870.13
2022-09-05T07:49:14.751Z,-23866.47
2022-09-05T07:56:54.486Z,-23872.53
2022-09-05T07:57:15.659Z,-23878.38
2022-09-05T07:58:49.846Z,-23876.91
2022-09-05T08:01:42.534Z,-23878.84
2022-09-05T08:04:35.910Z,-23882.25
2022-09-05T08:07:47.058Z,-23895.13
2022-09-05T08:11:22.692Z,-23889.53
2022-09-05T08:14:25.452Z,-23885.16
2022-09-05T08:17:19.659Z,-23894.38
2022-09-05T08:20:24.325Z,-23906.53
2022-09-05T08:23:20.049Z,-23910.91
2022-09-05T08:26:14.296Z,-23901.91
2022-09-05T08:29:27.280Z,-23900.47
2022-09-05T08:32:23.032Z,-23910.19
2022-09-05T08:35:16.016Z,-23900.22
2022-09-05T08:38:04.575Z,-23899.50
2022-09-05T08:41:15.764Z,-23909.69
2022-09-05T08:46:44.798Z,-23912.84
2022-09-05T08:47:48.567Z,-23928.63
2022-09-05T08:51:13.189Z,-23940.78
2022-09-05T08:54:18.583Z,-23934.47
2022-09-05T08:57:17.516Z,-23937.84
2022-09-05T09:00:20.399Z,-23944.66
2022-09-05T09:03:17.007Z,-23937.38
2022-09-05T09:06:15.675Z,-23942.22
2022-09-05T09:09:24.110Z,-23951.22
2022-09-05T09:12:40.477Z,-23960.19
2022-09-05T09:15:46.450Z,-23962.88
2022-09-05T09:18:45.231Z,-23950.00
2022-09-05T09:22:09.596Z,-23948.78
2022-09-05T09:25:15.464Z,-23960.19
2022-09-05T09:28:50.528Z,-23968.22
2022-09-05T09:31:58.019Z,-23960.69
2022-09-05T09:34:49.216Z,-23958.97
2022-09-05T09:37:54.327Z,-23972.81
2022-09-05T09:41:00.455Z,-23964.31
2022-09-05T09:44:08.464Z,-23982.28
2022-09-05T09:46:55.934Z,-23970.63
2022-09-05T09:50:15.005Z,-23975.25
2022-09-05T09:53:13.414Z,-23976.94
2022-09-05T09:56:25.496Z,-23975.72
2022-09-05T09:59:24.380Z,-23987.16
2022-09-05T10:03:59.732Z,-23985.22
2022-09-05T10:10:52.399Z,-24004.16
2022-09-05T10:10:59.632Z,-23982.28
2022-09-05T10:13:09.204Z,-24002.22
2022-09-05T10:16:20.998Z,-24007.53
2022-09-05T10:23:03.132Z,-24020.66
2022-09-05T10:25:52.978Z,-24020.66
2022-09-05T10:29:37.045Z,-24028.94
2022-09-05T10:35:04.766Z,-24020.19
2022-09-05T10:35:38.689Z,-24013.63
2022-09-05T10:38:38.636Z,-24026.97
2022-09-05T10:41:51.054Z,-24035.72
2022-09-05T10:44:52.198Z,-24042.53
2022-09-05T10:48:13.118Z,-24021.66
2022-09-05T10:51:06.119Z,-24035.22
2022-09-05T10:54:14.473Z,-24050.06
2022-09-05T10:57:38.861Z,-24024.06
2022-09-05T11:02:22.939Z,-24026.97
2022-09-05T11:04:26.718Z,-24043.00
2022-09-05T11:07:18.245Z,-24033.78
2022-09-05T11:10:34.913Z,-24042.03
2022-09-05T11:13:44.628Z,-24039.59
2022-09-05T11:16:46.960Z,-24041.56
2022-09-05T11:19:47.718Z,-24051.75
2022-09-05T11:22:40.207Z,-24055.88
2022-09-05T11:25:40.050Z,-24063.91
2022-09-05T11:28:59.860Z,-24046.41
2022-09-05T11:32:40.046Z,-24052.97
2022-09-05T11:39:56.167Z,-24074.84
2022-09-05T11:40:04.006Z,-24052.25
2022-09-05T11:42:06.704Z,-24075.31
2022-09-05T11:44:56.928Z,-24081.88
2022-09-05T11:48:07.048Z,-24081.88
2022-09-05T11:51:33.293Z,-24083.81
2022-09-05T11:54:24.076Z,-24086.00
2022-09-05T11:57:32.788Z,-24090.63
2022-09-05T12:00:31.140Z,-24090.63
2022-09-05T12:04:00.339Z,-24090.13
2022-09-05T12:07:29.782Z,-24098.88
2022-09-05T12:10:45.954Z,-24100.81
2022-09-05T12:13:38.095Z,-24100.09
2022-09-05T12:16:43.959Z,-24095.47
2022-09-05T12:19:34.954Z,-24098.88
2022-09-05T12:22:36.612Z,-24108.84
2022-09-05T12:27:37.027Z,-24102.28
2022-09-05T12:29:29.513Z,-24110.03
2022-09-05T12:34:46.764Z,-24100.81
2022-09-05T12:36:08.278Z,-24110.28
2022-09-05T12:41:01.062Z,-24099.59
2022-09-05T12:43:36.692Z,-24094.03
2022-09-05T12:46:45.903Z,-24107.13
2022-09-05T12:49:52.206Z,-24116.84
2022-09-05T12:52:44.817Z,-24122.19
2022-09-05T12:55:37.750Z,-24123.66
2022-09-05T13:03:02.011Z,-24124.63
2022-09-05T13:03:06.817Z,-24134.34
2022-09-05T13:05:02.154Z,-24103.75
2022-09-05T13:07:56.300Z,-24114.44
2022-09-05T13:14:46.309Z,-24125.13
2022-09-05T13:14:58.327Z,-24118.06
2022-09-05T13:17:06.317Z,-24122.69
2022-09-05T13:19:54.824Z,-24131.91
2022-09-05T13:22:48.816Z,-24145.53
2022-09-05T13:25:37.308Z,-24140.91
2022-09-05T13:28:43.136Z,-24143.34
2022-09-05T13:37:59.735Z,-24151.34
2022-09-05T13:38:15.622Z,-24149.88
2022-09-05T13:38:37.298Z,-24149.41
2022-09-05T13:41:46.589Z,-24139.94
2022-09-05T13:44:41.164Z,-24135.06
2022-09-05T13:47:58.797Z,-24141.63
2022-09-05T13:50:54.994Z,-24156.69
2022-09-05T13:53:58.894Z,-24162.53
2022-09-05T13:57:16.405Z,-24165.69
2022-09-05T14:00:38.433Z,-24151.09
2022-09-05T14:03:40.688Z,-24166.16
2022-09-05T14:11:02.279Z,-24172.47
2022-09-05T14:14:16.054Z,-24163.50
2022-09-05T14:17:50.169Z,-24163.00
2022-09-05T14:20:29.242Z,-24162.53
2022-09-05T14:23:17.746Z,-24148.44
2022-09-05T14:26:15.049Z,-24154.28
2022-09-05T14:29:16.998Z,-24161.06
2022-09-05T14:37:40.802Z,-24147.22
2022-09-05T14:37:45.784Z,-24161.06
2022-09-05T14:39:30.856Z,-24166.91
2022-09-05T14:42:43.742Z,-24182.44
2022-09-05T14:45:47.435Z,-24191.19
2022-09-05T14:48:53.515Z,-24186.09
2022-09-05T14:51:46.643Z,-24170.56
2022-09-05T15:02:41.428Z,-24193.38
2022-09-05T15:02:49.656Z,-24206.75
2022-09-05T15:07:24.453Z,-24181.97
2022-09-05T15:12:20.000Z,-24199.94
2022-09-05T15:13:20.501Z,-24205.28
2022-09-05T15:16:15.384Z,-24209.41
2022-09-05T15:19:02.509Z,-24215.72
2022-09-05T15:21:49.742Z,-24215.50
2022-09-05T15:24:36.732Z,-24206.50
2022-09-05T15:27:29.201Z,-24213.78
2022-09-05T15:30:35.352Z,-24220.84
2022-09-05T15:33:26.297Z,-24224.25
2022-09-05T15:36:17.285Z,-24227.16
2022-09-05T15:39:24.086Z,-24232.00
2022-09-05T15:42:21.858Z,-24226.44
2022-09-05T15:45:14.380Z,-24213.06
2022-09-05T15:48:15.274Z,-24221.81
2022-09-05T15:51:17.471Z,-24217.44
2022-09-05T15:54:05.334Z,-24219.38
2022-09-05T15:56:59.583Z,-24227.38
2022-09-05T15:59:51.229Z,-24219.38
2022-09-05T16:02:43.645Z,-24201.41
2022-09-05T16:10:31.079Z,-24188.28
2022-09-05T16:10:46.271Z,-24180.75
2022-09-05T16:12:14.122Z,-24176.13
2022-09-05T16:16:35.291Z,-24171.25
2022-09-05T16:23:17.725Z,-24171.75
2022-09-05T16:23:29.139Z,-24182.94
2022-09-05T16:24:59.479Z,-24177.59
2022-09-05T16:27:56.647Z,-24102.28
2022-09-05T16:30:43.563Z,-24014.13
2022-09-05T16:33:33.583Z,-24004.16
2022-09-05T16:36:36.106Z,-23993.00
2022-09-05T16:39:28.654Z,-23961.41
2022-09-05T16:42:47.164Z,-23944.91
2022-09-05T16:45:40.454Z,-23922.56
2022-09-05T16:48:57.436Z,-23908.47
2022-09-05T16:51:48.338Z,-23897.78
2022-09-05T16:54:48.173Z,-23907.75
2022-09-05T16:57:37.715Z,-23910.91
2022-09-05T17:00:24.673Z,-23926.19
2022-09-05T17:03:30.098Z,-23938.81
2022-09-05T17:06:45.888Z,-23941.97
2022-09-05T17:09:36.090Z,-23955.56
2022-09-05T17:12:29.166Z,-23965.28
2022-09-05T17:15:27.391Z,-23955.56
2022-09-05T17:18:24.218Z,-23961.41
2022-09-05T17:22:51.098Z,-23947.31
2022-09-05T17:29:15.353Z,-23947.56
2022-09-05T17:29:26.426Z,-23963.34
2022-09-05T17:33:53.432Z,-23965.53
2022-09-05T17:36:46.289Z,-23957.28
2022-09-05T17:39:57.357Z,-23970.41
2022-09-05T17:43:00.989Z,-23961.88
2022-09-05T17:46:09.799Z,-23960.69
2022-09-05T17:49:19.005Z,-23958.50
2022-09-05T17:52:18.564Z,-23956.06
2022-09-05T17:55:12.912Z,-23950.25
2022-09-05T17:58:21.542Z,-23958.00
2022-09-05T18:01:19.449Z,-23960.94
2022-09-05T18:04:16.533Z,-23958.50
2022-09-05T18:07:31.243Z,-23954.63
2022-09-05T18:10:27.420Z,-23956.56
2022-09-05T18:13:32.202Z,-23944.91
2022-09-05T18:17:35.394Z,-23952.91
2022-09-05T18:19:56.182Z,-23954.63
2022-09-05T18:23:18.251Z,-23948.78
2022-09-05T18:26:17.868Z,-23941.75
2022-09-05T18:29:21.440Z,-23933.47
2022-09-05T18:32:45.627Z,-23929.13
2022-09-05T18:35:56.654Z,-23940.53
2022-09-05T18:38:51.616Z,-23942.72
2022-09-05T18:41:41.820Z,-23941.50
2022-09-05T18:44:37.581Z,-23941.00
2022-09-05T18:47:50.988Z,-23941.50
2022-09-05T18:50:44.318Z,-23942.47
2022-09-05T18:53:34.805Z,-23942.47
2022-09-05T18:56:27.652Z,-23941.97
2022-09-05T18:59:24.137Z,-23939.56
2022-09-05T19:02:28.776Z,-23931.78
2022-09-05T19:05:36.368Z,-23925.72
2022-09-05T19:08:34.151Z,-23927.91
2022-09-05T19:11:28.219Z,-23923.03
2022-09-05T19:14:50.408Z,-23917.22
2022-09-05T19:17:47.015Z,-23908.47
2022-09-05T19:21:11.847Z,-23916.25
2022-09-05T19:24:04.063Z,-23916.50
2022-09-05T19:28:01.504Z,-23909.94
2022-09-05T19:36:56.935Z,-23908.00
2022-09-05T19:37:22.704Z,-23914.53
2022-09-05T19:37:23.736Z,-23916.50
2022-09-05T19:46:13.045Z,-23907.25
2022-09-05T19:47:28.857Z,-23907.50
2022-09-05T19:47:56.632Z,-23915.03
2022-09-05T19:49:23.264Z,-23910.91
2022-09-05T19:52:19.291Z,-23912.84
2022-09-05T19:55:26.228Z,-23921.34
2022-09-05T19:58:29.541Z,-23929.84
2022-09-05T20:01:23.079Z,-23934.47
2022-09-05T20:04:16.479Z,-23931.31
2022-09-05T20:07:19.394Z,-23927.91
2022-09-05T20:10:06.761Z,-23922.56
2022-09-05T20:12:54.284Z,-23923.28
2022-09-05T20:15:42.288Z,-23924.50
2022-09-05T20:18:37.416Z,-23923.78
2022-09-05T20:21:30.059Z,-23918.44
2022-09-05T20:24:18.082Z,-23918.69
2022-09-05T20:27:05.338Z,-23912.84
2022-09-05T20:29:59.860Z,-23909.19
2022-09-05T20:32:54.079Z,-23898.50
2022-09-05T20:43:11.458Z,-23895.34
2022-09-05T20:43:15.708Z,-23897.31
2022-09-05T20:43:22.839Z,-23888.56
2022-09-05T20:45:44.433Z,-23896.81
2022-09-05T20:54:07.503Z,-23894.38
2022-09-05T20:54:18.865Z,-23900.69
2022-09-05T20:54:53.417Z,-23904.81
2022-09-05T20:57:40.810Z,-23900.47
2022-09-05T21:00:28.150Z,-23905.31
2022-09-05T21:03:36.830Z,-23914.78
2022-09-05T21:06:33.645Z,-23910.41
2022-09-05T21:09:25.025Z,-23907.50
2022-09-05T21:12:27.757Z,-23905.81
2022-09-05T21:15:28.342Z,-23913.31
2022-09-05T21:18:33.292Z,-23916.25
2022-09-05T21:21:30.052Z,-23920.13
2022-09-05T21:24:24.048Z,-23924.97
2022-09-05T21:27:24.109Z,-23926.44
2022-09-05T21:30:30.901Z,-23923.53
2022-09-05T21:33:29.461Z,-23929.84
2022-09-05T21:36:27.517Z,-23926.44
2022-09-05T21:39:15.204Z,-23924.75
2022-09-05T21:42:38.888Z,-23925.47
2022-09-05T21:47:41.110Z,-23930.09
2022-09-05T21:48:16.750Z,-23930.81
2022-09-05T21:51:09.222Z,-23928.88
2022-09-05T21:58:55.220Z,-23924.50
2022-09-05T21:59:21.156Z,-23921.84
2022-09-05T22:00:33.723Z,-23922.06
2022-09-05T22:03:24.552Z,-23926.94
2022-09-05T22:06:11.887Z,-23927.41
2022-09-05T22:09:13.200Z,-23925.94
2022-09-05T22:12:12.997Z,-23926.94
2022-09-05T22:15:27.816Z,-23924.97
2022-09-05T22:18:18.292Z,-23919.63
2022-09-05T22:21:34.030Z,-23916.00
2022-09-05T22:24:16.266Z,-23912.84
2022-09-05T22:27:11.386Z,-23912.38
2022-09-05T22:30:01.950Z,-23908.47
2022-09-05T22:32:49.027Z,-23906.53
2022-09-05T22:35:39.136Z,-23912.13
2022-09-05T22:38:26.334Z,-23903.13
2022-09-05T22:41:13.841Z,-23903.63
2022-09-05T22:44:01.191Z,-23892.94
2022-09-05T22:46:48.320Z,-23902.16
2022-09-05T22:49:36.725Z,-23917.47
2022-09-05T22:52:23.728Z,-23921.84
2022-09-05T22:55:11.032Z,-23924.50
2022-09-05T22:57:58.006Z,-23932.28
2022-09-05T23:00:45.270Z,-23931.31
2022-09-05T23:03:33.258Z,-23928.38
2022-09-05T23:06:20.293Z,-23938.59
2022-09-05T23:09:09.680Z,-23937.38
2022-09-05T23:11:56.647Z,-23937.59
2022-09-05T23:14:43.715Z,-23935.19
2022-09-05T23:17:30.727Z,-23940.53
2022-09-05T23:20:17.799Z,-23940.53
2022-09-05T23:23:06.915Z,-23940.53
2022-09-05T23:25:53.882Z,-23938.34
2022-09-05T23:28:43.483Z,-23937.13
2022-09-05T23:31:30.730Z,-23938.59
2022-09-05T23:34:17.830Z,-23931.78
2022-09-05T23:37:08.136Z,-23938.09
2022-09-05T23:39:55.216Z,-23929.34
2022-09-05T23:42:42.367Z,-23919.63
2022-09-05T23:45:29.660Z,-23929.13
2022-09-05T23:48:16.918Z,-23927.91
2022-09-05T23:51:08.792Z,-23929.84
2022-09-05T23:53:55.809Z,-23925.94
2022-09-05T23:56:42.819Z,-23922.56
2022-09-05T23:59:29.853Z,-23932.75
